Etusivu
METAR-TAF:

METAR-TAF

Lentoasemat :

Land O' Lakes, Wisconsin, Yhdysvallat

Leveyspiiri: 46-09-14N, Pituuspiiri: 089-12-43W, korkeus merenpinnasta: 520 m

Tämänhetkinen sää

Tämä raportti tehtiin 24 minuuttia sitten, kello 01.35 UTC
Tuuli 5 kn lännestä
Lämpötila -8°C
Kosteus 85%
Ilmanpaine 1013 hPa
Näkyvyys: 16.1 km
Pilvistä 1400 ft:n korkeudessa

METAR: KLNL 140135Z AUTO 26005KT 10SM OVC014 M08/M10 A2992 RMK AO2 T10761100

Aika: 19:59 (01:59 UTC)


TAF: puuttuu

Säähavainnot ja -ennusteet yli 4000 lentoasemalta (METAR- ja TAF-raportit).

Käytössä olevat sääasemat on merkitty karttaan keltaisilla ja punaisilla pisteillä.

Aseta hiiri pisteen päälle nähdäksesi sääaseman nimen.

Klikkaa sitten nähdäksesi säähavainnot ja -ennusteet.

Kartan vaihtaminen: klikkaa mustalla rastilla varustettuja vihreitä pisteitä, niin voit zoomata sisään; viivalla varustettua vihreää pistettä, niin voit zoomata ulos tai vihreitä nuolia, niin pääset viereisille kartoille.


METAR-TAF: